sensor_id;sensor_type;location;lat;lon;timestamp;P1;durP1;ratioP1;P2;durP2;ratioP2
24147;SDS011;12309;51.450;-2.624;2023-06-10T00:00:34;24.23;;;8.05;;
24147;SDS011;12309;51.450;-2.624;2023-06-10T00:03:00;21.13;;;8.52;;
24147;SDS011;12309;51.450;-2.624;2023-06-10T00:05:26;22.15;;;8.40;;
24147;SDS011;12309;51.450;-2.624;2023-06-10T00:07:54;19.67;;;8.43;;
24147;SDS011;12309;51.450;-2.624;2023-06-10T00:10:21;21.17;;;8.45;;
24147;SDS011;12309;51.450;-2.624;2023-06-10T00:12:47;24.02;;;7.95;;
24147;SDS011;12309;51.450;-2.624;2023-06-10T00:15:13;25.83;;;8.48;;
24147;SDS011;12309;51.450;-2.624;2023-06-10T00:17:38;27.45;;;8.18;;
24147;SDS011;12309;51.450;-2.624;2023-06-10T00:20:06;21.60;;;7.80;;
24147;SDS011;12309;51.450;-2.624;2023-06-10T00:22:34;26.83;;;9.15;;
24147;SDS011;12309;51.450;-2.624;2023-06-10T00:24:59;24.98;;;8.80;;
24147;SDS011;12309;51.450;-2.624;2023-06-10T00:27:25;23.25;;;8.38;;
24147;SDS011;12309;51.450;-2.624;2023-06-10T00:29:56;23.58;;;8.68;;
24147;SDS011;12309;51.450;-2.624;2023-06-10T00:32:22;21.02;;;8.45;;
24147;SDS011;12309;51.450;-2.624;2023-06-10T00:34:47;29.10;;;8.50;;
24147;SDS011;12309;51.450;-2.624;2023-06-10T00:37:13;23.95;;;8.65;;
24147;SDS011;12309;51.450;-2.624;2023-06-10T00:39:38;20.30;;;8.65;;
24147;SDS011;12309;51.450;-2.624;2023-06-10T00:42:04;26.23;;;8.57;;
24147;SDS011;12309;51.450;-2.624;2023-06-10T00:44:32;27.77;;;9.25;;
24147;SDS011;12309;51.450;-2.624;2023-06-10T00:46:57;24.10;;;9.20;;
24147;SDS011;12309;51.450;-2.624;2023-06-10T00:49:23;18.13;;;8.48;;
24147;SDS011;12309;51.450;-2.624;2023-06-10T00:51:49;25.58;;;8.70;;
24147;SDS011;12309;51.450;-2.624;2023-06-10T00:54:17;22.58;;;8.10;;
24147;SDS011;12309;51.450;-2.624;2023-06-10T00:56:43;21.10;;;8.05;;
24147;SDS011;12309;51.450;-2.624;2023-06-10T00:59:08;24.92;;;8.13;;
24147;SDS011;12309;51.450;-2.624;2023-06-10T01:01:34;22.15;;;8.75;;
24147;SDS011;12309;51.450;-2.624;2023-06-10T01:04:02;22.15;;;8.68;;
24147;SDS011;12309;51.450;-2.624;2023-06-10T01:06:44;26.38;;;8.85;;
24147;SDS011;12309;51.450;-2.624;2023-06-10T01:12:19;24.45;;;8.35;;
24147;SDS011;12309;51.450;-2.624;2023-06-10T01:14:53;19.08;;;8.23;;
24147;SDS011;12309;51.450;-2.624;2023-06-10T01:17:20;23.50;;;8.57;;
24147;SDS011;12309;51.450;-2.624;2023-06-10T01:19:55;20.55;;;8.68;;
24147;SDS011;12309;51.450;-2.624;2023-06-10T01:22:24;22.55;;;8.68;;
24147;SDS011;12309;51.450;-2.624;2023-06-10T01:24:53;23.00;;;9.45;;
24147;SDS011;12309;51.450;-2.624;2023-06-10T01:27:23;19.92;;;8.50;;
24147;SDS011;12309;51.450;-2.624;2023-06-10T01:30:15;33.33;;;9.60;;
24147;SDS011;12309;51.450;-2.624;2023-06-10T01:32:45;26.05;;;8.73;;
24147;SDS011;12309;51.450;-2.624;2023-06-10T01:35:13;23.05;;;8.65;;
24147;SDS011;12309;51.450;-2.624;2023-06-10T01:37:39;24.40;;;8.63;;
24147;SDS011;12309;51.450;-2.624;2023-06-10T01:40:08;21.80;;;8.57;;
24147;SDS011;12309;51.450;-2.624;2023-06-10T01:42:34;23.33;;;8.15;;
24147;SDS011;12309;51.450;-2.624;2023-06-10T01:45:00;26.95;;;10.65;;
24147;SDS011;12309;51.450;-2.624;2023-06-10T01:47:26;23.45;;;8.30;;
24147;SDS011;12309;51.450;-2.624;2023-06-10T01:49:52;21.65;;;9.40;;
24147;SDS011;12309;51.450;-2.624;2023-06-10T01:52:18;24.65;;;9.00;;
24147;SDS011;12309;51.450;-2.624;2023-06-10T01:54:43;21.05;;;8.38;;
24147;SDS011;12309;51.450;-2.624;2023-06-10T01:57:09;19.15;;;8.43;;
24147;SDS011;12309;51.450;-2.624;2023-06-10T01:59:35;25.27;;;8.80;;
24147;SDS011;12309;51.450;-2.624;2023-06-10T02:02:02;23.77;;;8.45;;
24147;SDS011;12309;51.450;-2.624;2023-06-10T02:04:29;20.65;;;8.27;;
24147;SDS011;12309;51.450;-2.624;2023-06-10T02:06:54;23.60;;;9.32;;
24147;SDS011;12309;51.450;-2.624;2023-06-10T02:09:20;25.55;;;9.25;;
24147;SDS011;12309;51.450;-2.624;2023-06-10T02:11:47;23.05;;;9.32;;
24147;SDS011;12309;51.450;-2.624;2023-06-10T02:14:14;23.40;;;8.68;;
24147;SDS011;12309;51.450;-2.624;2023-06-10T02:16:40;26.13;;;9.38;;
24147;SDS011;12309;51.450;-2.624;2023-06-10T02:19:05;24.13;;;9.18;;
24147;SDS011;12309;51.450;-2.624;2023-06-10T02:21:32;21.55;;;8.23;;
24147;SDS011;12309;51.450;-2.624;2023-06-10T02:23:59;30.13;;;9.25;;
24147;SDS011;12309;51.450;-2.624;2023-06-10T02:26:25;26.08;;;10.05;;
24147;SDS011;12309;51.450;-2.624;2023-06-10T02:28:51;24.85;;;8.88;;
24147;SDS011;12309;51.450;-2.624;2023-06-10T02:31:17;29.83;;;10.45;;
24147;SDS011;12309;51.450;-2.624;2023-06-10T02:33:43;26.25;;;10.65;;
24147;SDS011;12309;51.450;-2.624;2023-06-10T02:36:09;27.48;;;9.60;;
24147;SDS011;12309;51.450;-2.624;2023-06-10T02:38:38;29.65;;;9.50;;
24147;SDS011;12309;51.450;-2.624;2023-06-10T02:41:05;24.58;;;10.02;;
24147;SDS011;12309;51.450;-2.624;2023-06-10T02:43:31;22.70;;;9.68;;
24147;SDS011;12309;51.450;-2.624;2023-06-10T02:45:56;24.08;;;10.20;;
24147;SDS011;12309;51.450;-2.624;2023-06-10T02:48:25;28.02;;;10.43;;
24147;SDS011;12309;51.450;-2.624;2023-06-10T02:50:52;20.08;;;10.57;;
24147;SDS011;12309;51.450;-2.624;2023-06-10T02:53:18;28.52;;;10.75;;
24147;SDS011;12309;51.450;-2.624;2023-06-10T02:55:44;23.70;;;10.02;;
24147;SDS011;12309;51.450;-2.624;2023-06-10T02:58:09;22.55;;;10.05;;
24147;SDS011;12309;51.450;-2.624;2023-06-10T03:00:35;21.67;;;10.20;;
24147;SDS011;12309;51.450;-2.624;2023-06-10T03:03:01;23.08;;;10.27;;
24147;SDS011;12309;51.450;-2.624;2023-06-10T03:05:28;26.10;;;10.88;;
24147;SDS011;12309;51.450;-2.624;2023-06-10T03:07:54;25.10;;;11.50;;
24147;SDS011;12309;51.450;-2.624;2023-06-10T03:10:20;23.52;;;10.27;;
24147;SDS011;12309;51.450;-2.624;2023-06-10T03:12:46;25.35;;;10.93;;
24147;SDS011;12309;51.450;-2.624;2023-06-10T03:15:11;23.77;;;11.07;;
24147;SDS011;12309;51.450;-2.624;2023-06-10T03:17:37;25.50;;;10.70;;
24147;SDS011;12309;51.450;-2.624;2023-06-10T03:20:03;26.67;;;10.98;;
24147;SDS011;12309;51.450;-2.624;2023-06-10T03:22:35;24.08;;;11.80;;
24147;SDS011;12309;51.450;-2.624;2023-06-10T03:25:01;25.75;;;11.20;;
24147;SDS011;12309;51.450;-2.624;2023-06-10T03:27:26;30.70;;;12.13;;
24147;SDS011;12309;51.450;-2.624;2023-06-10T03:29:54;24.45;;;11.93;;
24147;SDS011;12309;51.450;-2.624;2023-06-10T03:32:20;28.92;;;12.75;;
24147;SDS011;12309;51.450;-2.624;2023-06-10T03:34:45;25.00;;;11.75;;
24147;SDS011;12309;51.450;-2.624;2023-06-10T03:37:12;28.67;;;12.30;;
24147;SDS011;12309;51.450;-2.624;2023-06-10T03:39:38;30.42;;;12.32;;
24147;SDS011;12309;51.450;-2.624;2023-06-10T03:42:04;28.02;;;12.52;;
24147;SDS011;12309;51.450;-2.624;2023-06-10T03:44:30;33.65;;;14.25;;
24147;SDS011;12309;51.450;-2.624;2023-06-10T03:46:56;28.70;;;12.73;;
24147;SDS011;12309;51.450;-2.624;2023-06-10T03:49:22;25.98;;;12.77;;
24147;SDS011;12309;51.450;-2.624;2023-06-10T03:51:50;23.10;;;12.95;;
24147;SDS011;12309;51.450;-2.624;2023-06-10T03:54:16;26.00;;;12.48;;
24147;SDS011;12309;51.450;-2.624;2023-06-10T03:56:41;29.85;;;13.07;;
24147;SDS011;12309;51.450;-2.624;2023-06-10T03:59:07;30.02;;;12.93;;
24147;SDS011;12309;51.450;-2.624;2023-06-10T04:01:33;26.73;;;13.18;;
24147;SDS011;12309;51.450;-2.624;2023-06-10T04:04:00;28.08;;;13.45;;
24147;SDS011;12309;51.450;-2.624;2023-06-10T04:06:26;37.55;;;13.45;;
24147;SDS011;12309;51.450;-2.624;2023-06-10T04:08:54;31.05;;;13.52;;
24147;SDS011;12309;51.450;-2.624;2023-06-10T04:11:21;30.13;;;14.35;;
24147;SDS011;12309;51.450;-2.624;2023-06-10T04:13:48;28.95;;;14.32;;
24147;SDS011;12309;51.450;-2.624;2023-06-10T04:16:14;34.45;;;14.23;;
24147;SDS011;12309;51.450;-2.624;2023-06-10T04:18:41;33.17;;;13.63;;
24147;SDS011;12309;51.450;-2.624;2023-06-10T04:21:07;32.92;;;13.27;;
24147;SDS011;12309;51.450;-2.624;2023-06-10T04:23:33;34.20;;;14.10;;
24147;SDS011;12309;51.450;-2.624;2023-06-10T04:26:00;35.30;;;14.82;;
24147;SDS011;12309;51.450;-2.624;2023-06-10T04:28:25;32.83;;;13.88;;
24147;SDS011;12309;51.450;-2.624;2023-06-10T04:30:51;29.30;;;13.95;;
24147;SDS011;12309;51.450;-2.624;2023-06-10T04:33:17;53.15;;;15.80;;
24147;SDS011;12309;51.450;-2.624;2023-06-10T04:35:43;29.90;;;13.82;;
24147;SDS011;12309;51.450;-2.624;2023-06-10T04:38:09;30.83;;;13.25;;
24147;SDS011;12309;51.450;-2.624;2023-06-10T04:40:35;34.58;;;14.20;;
24147;SDS011;12309;51.450;-2.624;2023-06-10T04:43:00;32.00;;;14.10;;
24147;SDS011;12309;51.450;-2.624;2023-06-10T04:45:26;29.52;;;13.65;;
24147;SDS011;12309;51.450;-2.624;2023-06-10T04:47:53;31.52;;;14.65;;
24147;SDS011;12309;51.450;-2.624;2023-06-10T04:50:20;31.63;;;14.35;;
24147;SDS011;12309;51.450;-2.624;2023-06-10T04:52:46;37.88;;;14.52;;
24147;SDS011;12309;51.450;-2.624;2023-06-10T04:55:11;29.88;;;14.57;;
24147;SDS011;12309;51.450;-2.624;2023-06-10T04:57:37;28.60;;;14.30;;
24147;SDS011;12309;51.450;-2.624;2023-06-10T05:00:03;37.38;;;15.57;;
24147;SDS011;12309;51.450;-2.624;2023-06-10T05:02:31;35.15;;;14.90;;
24147;SDS011;12309;51.450;-2.624;2023-06-10T05:04:56;32.40;;;14.02;;
24147;SDS011;12309;51.450;-2.624;2023-06-10T05:07:23;38.83;;;14.27;;
24147;SDS011;12309;51.450;-2.624;2023-06-10T05:09:48;28.65;;;14.38;;
24147;SDS011;12309;51.450;-2.624;2023-06-10T05:12:14;31.25;;;14.30;;
24147;SDS011;12309;51.450;-2.624;2023-06-10T05:14:40;27.50;;;14.15;;
24147;SDS011;12309;51.450;-2.624;2023-06-10T05:17:06;30.60;;;14.35;;
24147;SDS011;12309;51.450;-2.624;2023-06-10T05:19:32;31.33;;;14.80;;
24147;SDS011;12309;51.450;-2.624;2023-06-10T05:21:57;28.08;;;14.20;;
24147;SDS011;12309;51.450;-2.624;2023-06-10T05:24:23;33.58;;;15.07;;
24147;SDS011;12309;51.450;-2.624;2023-06-10T05:26:49;32.92;;;14.57;;
24147;SDS011;12309;51.450;-2.624;2023-06-10T05:29:15;27.33;;;13.43;;
24147;SDS011;12309;51.450;-2.624;2023-06-10T05:31:41;29.02;;;13.98;;
24147;SDS011;12309;51.450;-2.624;2023-06-10T05:34:06;26.85;;;13.82;;
24147;SDS011;12309;51.450;-2.624;2023-06-10T05:36:32;34.95;;;14.68;;
24147;SDS011;12309;51.450;-2.624;2023-06-10T05:38:57;35.65;;;15.25;;
24147;SDS011;12309;51.450;-2.624;2023-06-10T05:41:23;31.42;;;15.45;;
24147;SDS011;12309;51.450;-2.624;2023-06-10T05:43:50;31.88;;;15.23;;
24147;SDS011;12309;51.450;-2.624;2023-06-10T05:46:16;32.17;;;14.80;;
24147;SDS011;12309;51.450;-2.624;2023-06-10T05:48:41;34.13;;;14.48;;
24147;SDS011;12309;51.450;-2.624;2023-06-10T05:51:07;30.35;;;13.73;;
24147;SDS011;12309;51.450;-2.624;2023-06-10T05:53:32;33.80;;;14.27;;
24147;SDS011;12309;51.450;-2.624;2023-06-10T05:55:58;31.75;;;13.73;;
24147;SDS011;12309;51.450;-2.624;2023-06-10T05:58:24;35.40;;;14.65;;
24147;SDS011;12309;51.450;-2.624;2023-06-10T06:00:49;34.22;;;13.90;;
24147;SDS011;12309;51.450;-2.624;2023-06-10T06:03:15;31.95;;;15.20;;
24147;SDS011;12309;51.450;-2.624;2023-06-10T06:05:42;33.40;;;14.75;;
24147;SDS011;12309;51.450;-2.624;2023-06-10T06:08:09;31.23;;;14.45;;
24147;SDS011;12309;51.450;-2.624;2023-06-10T06:10:35;37.15;;;14.98;;
24147;SDS011;12309;51.450;-2.624;2023-06-10T06:13:01;31.17;;;14.13;;
24147;SDS011;12309;51.450;-2.624;2023-06-10T06:15:27;30.70;;;14.48;;
24147;SDS011;12309;51.450;-2.624;2023-06-10T06:17:53;29.88;;;14.20;;
24147;SDS011;12309;51.450;-2.624;2023-06-10T06:20:19;34.55;;;15.18;;
24147;SDS011;12309;51.450;-2.624;2023-06-10T06:22:45;30.45;;;14.15;;
24147;SDS011;12309;51.450;-2.624;2023-06-10T06:25:11;29.80;;;14.18;;
24147;SDS011;12309;51.450;-2.624;2023-06-10T06:27:36;31.65;;;14.05;;
24147;SDS011;12309;51.450;-2.624;2023-06-10T06:30:02;29.70;;;13.70;;
24147;SDS011;12309;51.450;-2.624;2023-06-10T06:32:28;25.95;;;12.43;;
24147;SDS011;12309;51.450;-2.624;2023-06-10T06:34:54;29.85;;;12.85;;
24147;SDS011;12309;51.450;-2.624;2023-06-10T06:37:21;31.83;;;14.63;;
24147;SDS011;12309;51.450;-2.624;2023-06-10T06:39:49;30.27;;;13.50;;
24147;SDS011;12309;51.450;-2.624;2023-06-10T06:42:15;28.77;;;12.93;;
24147;SDS011;12309;51.450;-2.624;2023-06-10T06:44:41;29.85;;;13.90;;
24147;SDS011;12309;51.450;-2.624;2023-06-10T06:47:07;34.05;;;13.30;;
24147;SDS011;12309;51.450;-2.624;2023-06-10T06:49:33;28.17;;;12.30;;
24147;SDS011;12309;51.450;-2.624;2023-06-10T06:51:58;27.92;;;13.30;;
24147;SDS011;12309;51.450;-2.624;2023-06-10T06:54:24;24.88;;;12.38;;
24147;SDS011;12309;51.450;-2.624;2023-06-10T06:56:50;29.02;;;13.13;;
24147;SDS011;12309;51.450;-2.624;2023-06-10T06:59:15;25.70;;;12.48;;
24147;SDS011;12309;51.450;-2.624;2023-06-10T07:01:44;22.73;;;11.40;;
24147;SDS011;12309;51.450;-2.624;2023-06-10T07:04:09;27.73;;;12.18;;
24147;SDS011;12309;51.450;-2.624;2023-06-10T07:06:35;21.75;;;11.80;;
24147;SDS011;12309;51.450;-2.624;2023-06-10T07:09:01;26.02;;;11.48;;
24147;SDS011;12309;51.450;-2.624;2023-06-10T07:11:27;20.92;;;11.48;;
24147;SDS011;12309;51.450;-2.624;2023-06-10T07:13:52;30.23;;;12.27;;
24147;SDS011;12309;51.450;-2.624;2023-06-10T07:16:18;28.75;;;11.93;;
24147;SDS011;12309;51.450;-2.624;2023-06-10T07:18:45;27.25;;;11.68;;
24147;SDS011;12309;51.450;-2.624;2023-06-10T07:21:11;24.30;;;11.82;;
24147;SDS011;12309;51.450;-2.624;2023-06-10T07:23:37;20.77;;;11.68;;
24147;SDS011;12309;51.450;-2.624;2023-06-10T07:26:02;23.65;;;11.55;;
24147;SDS011;12309;51.450;-2.624;2023-06-10T07:28:28;25.75;;;11.82;;
24147;SDS011;12309;51.450;-2.624;2023-06-10T07:30:54;28.88;;;11.50;;
24147;SDS011;12309;51.450;-2.624;2023-06-10T07:33:19;22.58;;;11.48;;
24147;SDS011;12309;51.450;-2.624;2023-06-10T07:35:45;29.60;;;11.68;;
24147;SDS011;12309;51.450;-2.624;2023-06-10T07:38:11;29.88;;;11.07;;
24147;SDS011;12309;51.450;-2.624;2023-06-10T07:40:36;27.20;;;11.60;;
24147;SDS011;12309;51.450;-2.624;2023-06-10T07:43:02;20.70;;;10.73;;
24147;SDS011;12309;51.450;-2.624;2023-06-10T07:45:28;25.67;;;10.95;;
24147;SDS011;12309;51.450;-2.624;2023-06-10T07:47:53;25.63;;;10.48;;
24147;SDS011;12309;51.450;-2.624;2023-06-10T07:50:20;20.27;;;10.30;;
24147;SDS011;12309;51.450;-2.624;2023-06-10T07:52:45;25.48;;;10.85;;
24147;SDS011;12309;51.450;-2.624;2023-06-10T07:55:11;29.55;;;11.07;;
24147;SDS011;12309;51.450;-2.624;2023-06-10T07:57:36;23.15;;;10.50;;
24147;SDS011;12309;51.450;-2.624;2023-06-10T08:00:03;24.70;;;9.93;;
24147;SDS011;12309;51.450;-2.624;2023-06-10T08:02:31;30.63;;;11.63;;
24147;SDS011;12309;51.450;-2.624;2023-06-10T08:04:56;28.33;;;10.93;;
24147;SDS011;12309;51.450;-2.624;2023-06-10T08:07:22;30.52;;;10.90;;
24147;SDS011;12309;51.450;-2.624;2023-06-10T08:09:47;32.67;;;10.23;;
24147;SDS011;12309;51.450;-2.624;2023-06-10T08:12:13;25.73;;;10.38;;
24147;SDS011;12309;51.450;-2.624;2023-06-10T08:14:39;25.73;;;9.60;;
24147;SDS011;12309;51.450;-2.624;2023-06-10T08:17:04;19.63;;;9.02;;
24147;SDS011;12309;51.450;-2.624;2023-06-10T08:19:31;25.55;;;10.43;;
24147;SDS011;12309;51.450;-2.624;2023-06-10T08:21:57;21.73;;;9.63;;
24147;SDS011;12309;51.450;-2.624;2023-06-10T08:24:22;20.52;;;9.25;;
24147;SDS011;12309;51.450;-2.624;2023-06-10T08:26:48;24.17;;;9.68;;
24147;SDS011;12309;51.450;-2.624;2023-06-10T08:29:13;24.13;;;9.52;;
24147;SDS011;12309;51.450;-2.624;2023-06-10T08:31:43;26.10;;;9.80;;
24147;SDS011;12309;51.450;-2.624;2023-06-10T08:34:09;24.85;;;9.32;;
24147;SDS011;12309;51.450;-2.624;2023-06-10T08:36:35;28.42;;;9.50;;
24147;SDS011;12309;51.450;-2.624;2023-06-10T08:39:01;33.00;;;9.82;;
24147;SDS011;12309;51.450;-2.624;2023-06-10T08:41:31;23.50;;;9.13;;
24147;SDS011;12309;51.450;-2.624;2023-06-10T08:44:12;20.00;;;8.90;;
24147;SDS011;12309;51.450;-2.624;2023-06-10T08:46:52;30.13;;;9.18;;
24147;SDS011;12309;51.450;-2.624;2023-06-10T08:49:20;24.20;;;9.48;;
24147;SDS011;12309;51.450;-2.624;2023-06-10T08:51:53;27.17;;;9.45;;
24147;SDS011;12309;51.450;-2.624;2023-06-10T08:54:25;25.73;;;9.38;;
24147;SDS011;12309;51.450;-2.624;2023-06-10T08:56:52;25.55;;;8.75;;
24147;SDS011;12309;51.450;-2.624;2023-06-10T08:59:20;24.80;;;8.63;;
24147;SDS011;12309;51.450;-2.624;2023-06-10T09:01:46;24.33;;;9.13;;
24147;SDS011;12309;51.450;-2.624;2023-06-10T09:04:13;19.98;;;7.85;;
24147;SDS011;12309;51.450;-2.624;2023-06-10T09:06:39;22.33;;;7.70;;
24147;SDS011;12309;51.450;-2.624;2023-06-10T09:09:06;22.80;;;8.52;;
24147;SDS011;12309;51.450;-2.624;2023-06-10T09:11:32;22.13;;;8.55;;
24147;SDS011;12309;51.450;-2.624;2023-06-10T09:13:58;25.15;;;8.45;;
24147;SDS011;12309;51.450;-2.624;2023-06-10T09:16:26;28.75;;;13.15;;
24147;SDS011;12309;51.450;-2.624;2023-06-10T09:18:52;26.65;;;10.38;;
24147;SDS011;12309;51.450;-2.624;2023-06-10T09:21:23;24.40;;;8.50;;
24147;SDS011;12309;51.450;-2.624;2023-06-10T09:23:49;22.67;;;8.32;;
24147;SDS011;12309;51.450;-2.624;2023-06-10T09:26:15;24.05;;;8.55;;
24147;SDS011;12309;51.450;-2.624;2023-06-10T09:28:42;21.48;;;8.05;;
24147;SDS011;12309;51.450;-2.624;2023-06-10T09:31:15;22.25;;;7.80;;
24147;SDS011;12309;51.450;-2.624;2023-06-10T09:33:43;18.20;;;7.82;;
24147;SDS011;12309;51.450;-2.624;2023-06-10T09:36:10;19.98;;;7.45;;
24147;SDS011;12309;51.450;-2.624;2023-06-10T09:38:36;24.40;;;8.45;;
24147;SDS011;12309;51.450;-2.624;2023-06-10T09:41:03;24.20;;;7.72;;
24147;SDS011;12309;51.450;-2.624;2023-06-10T09:43:42;21.33;;;7.55;;
24147;SDS011;12309;51.450;-2.624;2023-06-10T09:46:16;23.42;;;8.63;;
24147;SDS011;12309;51.450;-2.624;2023-06-10T09:48:43;23.35;;;7.00;;
24147;SDS011;12309;51.450;-2.624;2023-06-10T09:51:09;22.92;;;8.48;;
24147;SDS011;12309;51.450;-2.624;2023-06-10T09:53:36;22.38;;;8.68;;
24147;SDS011;12309;51.450;-2.624;2023-06-10T09:56:02;23.05;;;8.02;;
24147;SDS011;12309;51.450;-2.624;2023-06-10T09:58:34;21.58;;;7.72;;
24147;SDS011;12309;51.450;-2.624;2023-06-10T10:01:10;18.60;;;7.28;;
24147;SDS011;12309;51.450;-2.624;2023-06-10T10:03:43;17.27;;;7.65;;
24147;SDS011;12309;51.450;-2.624;2023-06-10T10:06:14;21.33;;;7.82;;
24147;SDS011;12309;51.450;-2.624;2023-06-10T10:08:40;19.50;;;7.43;;
24147;SDS011;12309;51.450;-2.624;2023-06-10T10:11:06;23.88;;;8.00;;
24147;SDS011;12309;51.450;-2.624;2023-06-10T10:13:33;18.02;;;7.30;;
24147;SDS011;12309;51.450;-2.624;2023-06-10T10:16:01;20.13;;;7.47;;
24147;SDS011;12309;51.450;-2.624;2023-06-10T10:18:35;19.60;;;7.43;;
24147;SDS011;12309;51.450;-2.624;2023-06-10T10:21:07;16.55;;;7.50;;
24147;SDS011;12309;51.450;-2.624;2023-06-10T10:24:01;21.05;;;8.07;;
24147;SDS011;12309;51.450;-2.624;2023-06-10T10:26:30;25.45;;;7.80;;
24147;SDS011;12309;51.450;-2.624;2023-06-10T10:28:59;18.77;;;7.38;;
24147;SDS011;12309;51.450;-2.624;2023-06-10T10:31:32;19.23;;;7.47;;
24147;SDS011;12309;51.450;-2.624;2023-06-10T10:34:02;19.08;;;7.18;;
24147;SDS011;12309;51.450;-2.624;2023-06-10T10:36:31;16.60;;;7.20;;
24147;SDS011;12309;51.450;-2.624;2023-06-10T10:38:57;19.70;;;7.35;;
24147;SDS011;12309;51.450;-2.624;2023-06-10T10:41:24;22.70;;;8.10;;
24147;SDS011;12309;51.450;-2.624;2023-06-10T10:43:51;19.58;;;7.50;;
24147;SDS011;12309;51.450;-2.624;2023-06-10T10:46:18;24.73;;;7.68;;
24147;SDS011;12309;51.450;-2.624;2023-06-10T10:48:44;25.48;;;7.90;;
24147;SDS011;12309;51.450;-2.624;2023-06-10T10:51:10;21.00;;;7.40;;
24147;SDS011;12309;51.450;-2.624;2023-06-10T10:53:37;15.45;;;7.18;;
24147;SDS011;12309;51.450;-2.624;2023-06-10T10:56:13;19.25;;;7.85;;
24147;SDS011;12309;51.450;-2.624;2023-06-10T10:58:40;40.83;;;10.52;;
24147;SDS011;12309;51.450;-2.624;2023-06-10T11:01:10;17.50;;;6.97;;
24147;SDS011;12309;51.450;-2.624;2023-06-10T11:03:45;16.02;;;6.85;;
24147;SDS011;12309;51.450;-2.624;2023-06-10T11:06:14;22.15;;;7.53;;
24147;SDS011;12309;51.450;-2.624;2023-06-10T11:11:19;20.25;;;7.95;;
24147;SDS011;12309;51.450;-2.624;2023-06-10T11:16:28;17.42;;;7.40;;
24147;SDS011;12309;51.450;-2.624;2023-06-10T11:18:54;19.85;;;7.95;;
24147;SDS011;12309;51.450;-2.624;2023-06-10T11:21:20;20.10;;;7.57;;
24147;SDS011;12309;51.450;-2.624;2023-06-10T11:23:48;16.20;;;7.57;;
24147;SDS011;12309;51.450;-2.624;2023-06-10T11:33:57;17.70;;;7.28;;
24147;SDS011;12309;51.450;-2.624;2023-06-10T11:36:23;17.08;;;7.68;;
24147;SDS011;12309;51.450;-2.624;2023-06-10T11:38:52;30.02;;;8.65;;
24147;SDS011;12309;51.450;-2.624;2023-06-10T11:41:20;23.40;;;7.20;;
24147;SDS011;12309;51.450;-2.624;2023-06-10T11:43:47;15.00;;;7.60;;
24147;SDS011;12309;51.450;-2.624;2023-06-10T11:46:14;12.63;;;6.95;;
24147;SDS011;12309;51.450;-2.624;2023-06-10T11:48:48;16.48;;;6.90;;
24147;SDS011;12309;51.450;-2.624;2023-06-10T11:51:17;18.27;;;6.97;;
24147;SDS011;12309;51.450;-2.624;2023-06-10T11:53:44;17.27;;;7.30;;
24147;SDS011;12309;51.450;-2.624;2023-06-10T11:56:10;20.02;;;7.18;;
24147;SDS011;12309;51.450;-2.624;2023-06-10T11:58:36;15.45;;;6.97;;
24147;SDS011;12309;51.450;-2.624;2023-06-10T12:01:01;17.80;;;7.30;;
24147;SDS011;12309;51.450;-2.624;2023-06-10T12:03:27;14.85;;;6.95;;
24147;SDS011;12309;51.450;-2.624;2023-06-10T12:06:03;13.93;;;7.35;;
24147;SDS011;12309;51.450;-2.624;2023-06-10T12:08:30;15.73;;;7.25;;
24147;SDS011;12309;51.450;-2.624;2023-06-10T12:10:57;15.40;;;6.70;;
24147;SDS011;12309;51.450;-2.624;2023-06-10T12:13:23;18.05;;;7.32;;
24147;SDS011;12309;51.450;-2.624;2023-06-10T12:15:52;14.70;;;6.85;;
24147;SDS011;12309;51.450;-2.624;2023-06-10T12:18:22;13.27;;;6.53;;
24147;SDS011;12309;51.450;-2.624;2023-06-10T12:20:48;16.42;;;7.07;;
24147;SDS011;12309;51.450;-2.624;2023-06-10T12:23:16;20.42;;;8.15;;
24147;SDS011;12309;51.450;-2.624;2023-06-10T12:25:52;18.33;;;6.63;;
24147;SDS011;12309;51.450;-2.624;2023-06-10T12:28:25;19.13;;;6.85;;
24147;SDS011;12309;51.450;-2.624;2023-06-10T12:30:52;17.75;;;7.00;;
24147;SDS011;12309;51.450;-2.624;2023-06-10T12:33:34;13.63;;;7.03;;
24147;SDS011;12309;51.450;-2.624;2023-06-10T12:36:00;12.25;;;7.10;;
24147;SDS011;12309;51.450;-2.624;2023-06-10T12:38:26;17.33;;;6.85;;
24147;SDS011;12309;51.450;-2.624;2023-06-10T12:40:52;16.52;;;6.78;;
24147;SDS011;12309;51.450;-2.624;2023-06-10T12:43:19;18.60;;;7.38;;
24147;SDS011;12309;51.450;-2.624;2023-06-10T12:45:45;20.50;;;7.32;;
24147;SDS011;12309;51.450;-2.624;2023-06-10T12:48:31;14.70;;;7.55;;
24147;SDS011;12309;51.450;-2.624;2023-06-10T12:50:57;21.55;;;8.18;;
24147;SDS011;12309;51.450;-2.624;2023-06-10T12:53:24;18.38;;;8.43;;
24147;SDS011;12309;51.450;-2.624;2023-06-10T12:55:51;16.15;;;7.90;;
24147;SDS011;12309;51.450;-2.624;2023-06-10T12:58:17;17.98;;;9.18;;
24147;SDS011;12309;51.450;-2.624;2023-06-10T13:00:44;23.13;;;9.05;;
24147;SDS011;12309;51.450;-2.624;2023-06-10T13:03:10;17.77;;;8.43;;
24147;SDS011;12309;51.450;-2.624;2023-06-10T13:05:36;20.98;;;9.10;;
24147;SDS011;12309;51.450;-2.624;2023-06-10T13:08:03;20.67;;;8.43;;
24147;SDS011;12309;51.450;-2.624;2023-06-10T13:10:30;17.85;;;8.15;;
24147;SDS011;12309;51.450;-2.624;2023-06-10T13:12:56;23.48;;;8.45;;
24147;SDS011;12309;51.450;-2.624;2023-06-10T13:15:21;20.35;;;8.70;;
24147;SDS011;12309;51.450;-2.624;2023-06-10T13:17:47;19.48;;;8.88;;
24147;SDS011;12309;51.450;-2.624;2023-06-10T13:20:14;29.50;;;9.48;;
24147;SDS011;12309;51.450;-2.624;2023-06-10T13:22:41;45.60;;;10.13;;
24147;SDS011;12309;51.450;-2.624;2023-06-10T13:25:06;19.85;;;8.48;;
24147;SDS011;12309;51.450;-2.624;2023-06-10T13:27:33;19.95;;;8.45;;
24147;SDS011;12309;51.450;-2.624;2023-06-10T13:29:59;20.40;;;8.85;;
24147;SDS011;12309;51.450;-2.624;2023-06-10T13:32:25;18.42;;;8.88;;
24147;SDS011;12309;51.450;-2.624;2023-06-10T13:34:50;26.50;;;9.65;;
24147;SDS011;12309;51.450;-2.624;2023-06-10T13:37:18;27.27;;;9.95;;
24147;SDS011;12309;51.450;-2.624;2023-06-10T13:39:44;22.13;;;9.23;;
24147;SDS011;12309;51.450;-2.624;2023-06-10T13:42:12;18.98;;;9.07;;
24147;SDS011;12309;51.450;-2.624;2023-06-10T13:44:37;23.58;;;9.18;;
24147;SDS011;12309;51.450;-2.624;2023-06-10T13:47:03;18.75;;;8.88;;
24147;SDS011;12309;51.450;-2.624;2023-06-10T13:49:29;23.63;;;9.52;;
24147;SDS011;12309;51.450;-2.624;2023-06-10T13:51:55;22.38;;;9.20;;
24147;SDS011;12309;51.450;-2.624;2023-06-10T13:54:21;18.88;;;9.02;;
24147;SDS011;12309;51.450;-2.624;2023-06-10T13:56:47;21.52;;;9.25;;
24147;SDS011;12309;51.450;-2.624;2023-06-10T13:59:12;26.30;;;9.88;;
24147;SDS011;12309;51.450;-2.624;2023-06-10T14:01:38;24.70;;;9.45;;
24147;SDS011;12309;51.450;-2.624;2023-06-10T14:04:05;18.35;;;9.02;;
24147;SDS011;12309;51.450;-2.624;2023-06-10T14:06:31;18.48;;;9.70;;
24147;SDS011;12309;51.450;-2.624;2023-06-10T14:08:58;28.42;;;9.27;;
24147;SDS011;12309;51.450;-2.624;2023-06-10T14:11:24;21.55;;;9.35;;
24147;SDS011;12309;51.450;-2.624;2023-06-10T14:13:50;21.13;;;9.52;;
24147;SDS011;12309;51.450;-2.624;2023-06-10T14:16:15;17.75;;;9.70;;
24147;SDS011;12309;51.450;-2.624;2023-06-10T14:18:41;18.27;;;9.20;;
24147;SDS011;12309;51.450;-2.624;2023-06-10T14:21:06;18.10;;;9.07;;
24147;SDS011;12309;51.450;-2.624;2023-06-10T14:23:32;23.80;;;8.82;;
24147;SDS011;12309;51.450;-2.624;2023-06-10T14:25:58;20.67;;;9.05;;
24147;SDS011;12309;51.450;-2.624;2023-06-10T14:28:24;18.58;;;8.93;;
24147;SDS011;12309;51.450;-2.624;2023-06-10T14:30:51;19.13;;;8.75;;